Latest Weather Observations for Cape Jaffa

IDS60801

Issued at 7:35 am CDT Wednesday 22 October 2014 (issued every 30 minutes, with the page automatically refreshed every 10 minutes)

About weather observations | Map of weather stations | Latest weather observations for SA | Other Formats
Station Details ID: 026095 Name: THE LIMESTONE Lat: -36.97 Lon: 139.72 Height: 17.0 m
Data from the previous 72 hours. | See also: Recent months at Cape Jaffa
Date/Time
CDT
Temp
°C
App
Temp
°C
Dew
Point
Rel
Hum
%
Delta-T
°C
Wind Press
QNH
hPa
Press
MSL
hPa
Rain
since 9 am
mm
Dir
 
Spd
km/h
Gust
km/h
Spd
kts
Gust
kts
22/07:30am 20.9 17.5 7.5 42 6.9 E 15 19 8 10 1015.8 1015.8 0.0
22/07:00am 18.7 15.3 7.8 49 5.6 E 15 17 8 9 1015.8 1015.8 0.0
22/06:30am 16.8 13.0 7.7 55 4.6 E 17 19 9 10 1015.8 1015.8 0.0
22/06:00am 16.8 13.0 7.4 54 4.7 E 17 19 9 10 1015.7 1015.7 0.0
22/05:30am 17.5 14.0 7.3 51 5.1 ENE 15 19 8 10 1015.6 1015.6 0.0
22/05:00am 17.7 13.9 7.4 51 5.2 ENE 17 17 9 9 1015.6 1015.6 0.0
22/04:30am 19.1 16.4 7.2 46 6.0 NE 11 13 6 7 1015.9 1015.9 0.0
22/04:00am 20.2 17.6 7.6 44 6.5 NNE 11 13 6 7 1016.2 1016.2 0.0
22/03:30am 19.7 16.6 7.4 45 6.3 N 13 15 7 8 1016.4 1016.4 0.0
22/03:00am 21.5 19.2 7.3 40 7.3 N 9 13 5 7 1016.6 1016.6 0.0
22/02:30am 22.4 18.5 7.0 37 7.9 N 17 22 9 12 1017.0 1017.0 0.0
22/02:00am 21.3 17.7 8.2 43 6.9 NW 17 26 9 14 1017.6 1017.6 0.0
22/01:54am 20.7 16.9 9.0 47 6.2 WNW 19 32 10 17 1017.5 1017.5 0.0
22/01:30am 15.6 12.9 3.7 45 5.5 N 7 17 4 9 1017.3 1017.3 0.0
22/01:00am 19.4 17.2 5.1 39 7.0 ENE 6 7 3 4 1017.0 1017.0 0.0
22/12:30am 19.3 16.1 5.0 39 6.9 ENE 11 13 6 7 1017.0 1017.0 0.0
22/12:00am 19.7 16.1 5.0 38 7.1 NE 13 15 7 8 1017.1 1017.1 0.0
 
Date/Time
CDT
Temp
°C
App
Temp
°C
Dew
Point
Rel
Hum
%
Delta-T
°C
Wind Press
QNH
hPa
Press
MSL
hPa
Rain
since 9 am
mm
Dir
 
Spd
km/h
Gust
km/h
Spd
kts
Gust
kts
21/11:30pm 22.2 17.7 4.3 31 8.7 ENE 17 20 9 11 1016.9 1016.9 0.0
21/11:00pm 23.0 18.3 5.0 31 9.0 ENE 19 24 10 13 1017.1 1017.1 0.0
21/10:30pm 23.6 19.0 5.5 31 9.1 ENE 19 22 10 12 1017.2 1017.2 0.0
21/10:00pm 23.0 18.9 6.3 34 8.5 E 17 20 9 11 1017.5 1017.5 0.0
21/09:30pm 23.9 19.3 6.7 33 8.9 E 20 22 11 12 1017.3 1017.3 0.0
21/09:00pm 24.4 20.4 6.6 32 9.2 E 17 19 9 10 1017.4 1017.4 0.0
21/08:30pm 25.1 21.1 6.8 31 9.5 E 17 19 9 10 1017.1 1017.1 0.0
21/08:00pm 26.3 22.5 7.4 30 10.0 E 17 19 9 10 1017.0 1017.0 0.0
21/07:30pm 27.3 22.9 6.7 27 10.8 E 19 20 10 11 1016.9 1016.9 0.0
21/07:00pm 27.7 24.3 7.5 28 10.8 E 15 17 8 9 1017.0 1017.0 0.0
21/06:30pm 29.5 26.3 6.8 24 12.1 E 13 15 7 8 1017.1 1017.1 0.0
21/06:00pm 31.7 27.8 5.3 19 13.9 ENE 15 20 8 11 1017.2 1017.2 0.0
21/05:30pm 33.2 29.4 4.0 16 15.2 NE 13 17 7 9 1017.3 1017.3 0.0
21/05:00pm 33.0 28.8 3.9 16 15.1 NE 15 22 8 12 1017.6 1017.6 0.0
21/04:30pm 33.0 28.2 4.7 17 14.9 NNE 19 24 10 13 1017.7 1017.7 0.0
21/04:00pm 31.6 26.6 4.4 18 14.1 NNE 20 24 11 13 1017.8 1017.8 0.0
21/03:30pm 32.9 28.1 4.6 17 14.8 NNE 19 30 10 16 1018.3 1018.3 0.0
21/03:00pm 32.7 28.0 5.3 18 14.5 NE 19 26 10 14 1018.8 1018.8 0.0
21/02:30pm 31.9 27.3 5.4 19 14.0 NNE 19 24 10 13 1019.3 1019.3 0.0
21/02:00pm 31.8 27.3 6.1 20 13.8 NNE 19 28 10 15 1019.8 1019.8 0.0
21/01:30pm 30.9 26.2 6.0 21 13.2 ENE 20 30 11 16 1020.3 1020.3 0.0
21/01:00pm 29.9 25.7 5.9 22 12.7 NE 17 24 9 13 1020.8 1020.8 0.0
21/12:30pm 28.6 24.2 6.7 25 11.6 NE 19 24 10 13 1021.3 1021.3 0.0
21/12:00pm 27.1 23.1 6.5 27 10.8 NNE 17 22 9 12 1021.8 1021.8 0.0
21/11:30am 26.5 21.9 6.5 28 10.4 NE 20 26 11 14 1022.2 1022.2 0.0
21/11:00am 24.9 20.3 6.6 31 9.5 NNE 20 26 11 14 1022.3 1022.3 0.0
21/10:30am 23.7 18.6 6.0 32 9.0 NNE 22 26 12 14 1022.6 1022.6 0.0
21/10:00am 21.7 15.8 6.0 36 7.9 ENE 26 32 14 17 1022.8 1022.8 0.0
21/09:30am 19.7 13.9 6.1 41 6.7 ENE 26 32 14 17 1022.7 1022.7 0.0
21/09:00am 16.9 12.0 6.7 51 5.0 ENE 22 28 12 15 1022.7 1022.7 0.0
21/08:30am 14.9 10.2 6.0 55 4.2 ENE 20 28 11 15 1022.9 1022.9 0.0
21/08:00am 12.1 7.9 5.7 65 3.0 ENE 17 20 9 11 1023.1 1023.1 0.0
21/07:30am 10.1 6.5 5.1 71 2.3 ENE 13 17 7 9 1022.9 1022.9 0.0
21/07:00am 10.3 6.3 4.9 69 2.4 E 15 20 8 11 1022.4 1022.4 0.0
21/06:30am 10.3 5.5 4.9 69 2.4 E 19 22 10 12 1022.0 1022.0 0.0
21/06:00am 10.7 5.7 4.8 67 2.7 E 20 26 11 14 1021.5 1021.5 0.0
21/05:30am 11.0 5.7 4.9 66 2.8 E 22 26 12 14 1021.3 1021.3 0.0
21/05:00am 11.4 6.1 4.8 64 3.0 E 22 28 12 15 1021.3 1021.3 0.0
21/04:30am 11.8 6.1 4.8 62 3.2 E 24 32 13 17 1021.2 1021.2 0.0
21/04:00am 11.9 6.1 4.6 61 3.3 E 24 28 13 15 1021.6 1021.6 0.0
21/03:30am 12.1 6.4 4.8 61 3.3 E 24 30 13 16 1021.6 1021.6 0.0
21/03:00am 12.3 6.6 4.8 60 3.4 E 24 30 13 16 1021.8 1021.8 0.0
21/02:30am 12.7 6.6 4.7 58 3.7 E 26 33 14 18 1022.0 1022.0 0.0
21/02:00am 13.2 7.1 4.9 57 3.8 E 26 32 14 17 1022.3 1022.3 0.0
21/01:30am 13.4 7.7 4.8 56 4.0 E 24 30 13 16 1022.8 1022.8 0.0
21/01:00am 13.8 8.8 4.7 54 4.2 E 20 28 11 15 1023.4 1023.4 0.0
21/12:30am 14.2 9.2 4.5 52 4.5 E 20 30 11 16 1023.6 1023.6 0.0
21/12:00am 14.6 9.8 4.6 51 4.6 E 19 30 10 16 1024.0 1024.0 0.0
 
Date/Time
CDT
Temp
°C
App
Temp
°C
Dew
Point
Rel
Hum
%
Delta-T
°C
Wind Press
QNH
hPa
Press
MSL
hPa
Rain
since 9 am
mm
Dir
 
Spd
km/h
Gust
km/h
Spd
kts
Gust
kts
20/11:30pm 15.3 10.9 4.7 49 4.9 E 17 24 9 13 1024.1 1024.1 0.0
20/11:00pm 15.6 11.7 5.2 50 4.9 ESE 15 20 8 11 1024.1 1024.1 0.0
20/10:30pm 16.1 12.2 5.4 49 5.1 ESE 15 24 8 13 1024.2 1024.2 0.0
20/10:00pm 16.7 12.9 5.9 49 5.2 ESE 15 20 8 11 1024.3 1024.3 0.0
20/09:30pm 16.9 13.5 5.8 48 5.4 SE 13 20 7 11 1024.5 1024.5 0.0
20/09:00pm 16.8 13.7 5.7 48 5.3 SE 11 15 6 8 1024.5 1024.5 0.0
20/08:30pm 17.1 14.4 5.7 47 5.5 ESE 9 17 5 9 1024.2 1024.2 0.0
20/08:00pm 17.5 14.5 5.8 46 5.7 SE 11 13 6 7 1024.0 1024.0 0.0
20/07:30pm 19.1 16.1 5.9 42 6.5 SE 11 17 6 9 1023.7 1023.7 0.0
20/07:00pm 20.1 16.7 6.1 40 7.0 ESE 13 19 7 10 1023.4 1023.4 0.0
20/06:30pm 21.0 18.0 5.8 37 7.5 ESE 11 19 6 10 1023.4 1023.4 0.0
20/06:00pm 21.7 17.9 6.0 36 7.9 ESE 15 22 8 12 1023.3 1023.3 0.0
20/05:30pm 22.3 17.7 5.7 34 8.3 ESE 19 28 10 15 1023.3 1023.3 0.0
20/05:00pm 23.4 19.6 5.8 32 8.9 ESE 15 19 8 10 1023.5 1023.5 0.0
20/04:30pm 22.9 19.4 5.3 32 8.8 ESE 13 19 7 10 1023.8 1023.8 0.0
20/04:00pm 23.5 20.9 6.3 33 8.8 ESE 9 15 5 8 1024.2 1024.2 0.0
20/03:30pm 23.2 21.1 9.6 42 7.3 ESE 11 17 6 9 1024.4 1024.4 0.0
20/03:00pm 23.0 20.6 7.1 36 8.2 E 9 19 5 10 1024.9 1024.9 0.0
20/02:30pm 22.0 20.1 9.2 44 6.8 S 9 22 5 12 1025.4 1025.4 0.0
20/02:00pm 22.1 19.3 7.1 38 7.7 ENE 11 19 6 10 1025.9 1025.9 0.0
20/01:30pm 21.6 19.3 7.4 40 7.3 ENE 9 19 5 10 1026.3 1026.3 0.0
20/01:00pm 21.4 18.5 8.0 42 7.0 ENE 13 33 7 18 1026.3 1026.3 0.0
20/12:30pm 19.8 16.0 7.5 45 6.3 ENE 17 24 9 13 1026.8 1026.8 0.0
20/12:00pm 19.0 15.4 6.8 45 6.1 E 15 24 8 13 1027.1 1027.1 0.0
20/11:30am 18.2 14.9 6.4 46 5.8 E 13 22 7 12 1027.7 1027.7 0.0
20/11:00am 16.6 12.1 5.9 49 5.2 E 19 24 10 13 1028.2 1028.2 0.0
20/10:30am 15.6 10.8 5.8 52 4.7 E 20 28 11 15 1028.5 1028.5 0.0
20/10:00am 14.5 8.8 5.0 53 4.4 E 24 30 13 16 1028.5 1028.5 0.0
20/09:30am 13.6 9.0 5.7 59 3.7 ESE 19 28 10 15 1028.8 1028.8 0.0
20/09:00am 12.6 7.8 5.5 62 3.3 ESE 20 30 11 16 1029.0 1029.0 0.0
20/08:30am 11.6 7.0 5.7 67 2.7 SE 19 30 10 16 1028.9 1028.9 0.0
20/08:00am 10.8 6.7 6.2 73 2.1 SE 17 32 9 17 1028.7 1028.7 0.0
20/07:30am 9.3 5.5 6.0 80 1.5 SE 15 20 8 11 1028.5 1028.5 0.0
20/07:00am 8.2 5.1 5.7 84 1.1 SSE 11 17 6 9 1028.3 1028.3 0.0
20/06:30am 8.0 4.5 5.5 84 1.1 SE 13 17 7 9 1027.7 1027.7 0.0
20/06:00am 8.7 4.9 6.0 83 1.2 SE 15 22 8 12 1027.2 1027.2 0.0
20/05:30am 8.7 4.9 6.0 83 1.2 SE 15 24 8 13 1027.1 1027.1 0.0
20/05:00am 8.7 4.9 6.0 83 1.2 SE 15 20 8 11 1026.9 1026.9 0.0
20/04:30am 9.3 5.2 6.2 81 1.4 SE 17 28 9 15 1026.6 1026.6 0.0
20/04:00am 9.4 5.0 6.7 83 1.3 SE 19 26 10 14 1026.5 1026.5 0.0
20/03:30am 9.6 5.7 6.9 83 1.3 SE 17 26 9 14 1026.7 1026.7 0.0
20/03:00am 10.1 5.7 7.2 82 1.4 SE 20 30 11 16 1026.4 1026.4 0.0
20/02:30am 10.4 6.0 7.3 81 1.5 SE 20 37 11 20 1026.4 1026.4 0.0
20/02:00am 10.8 6.1 7.9 82 1.4 SE 22 35 12 19 1026.6 1026.6 0.0
20/01:30am 10.6 6.4 8.2 85 1.2 SE 20 32 11 17 1026.6 1026.6 0.0
20/01:00am 10.6 6.6 8.4 86 1.1 SE 19 28 10 15 1026.6 1026.6 0.0
20/12:30am 10.7 6.7 8.1 84 1.3 SSE 19 26 10 14 1026.8 1026.8 0.0
20/12:00am 10.9 6.6 8.0 82 1.4 SSE 20 30 11 16 1026.6 1026.6 0.0
 
Date/Time
CDT
Temp
°C
App
Temp
°C
Dew
Point
Rel
Hum
%
Delta-T
°C
Wind Press
QNH
hPa
Press
MSL
hPa
Rain
since 9 am
mm
Dir
 
Spd
km/h
Gust
km/h
Spd
kts
Gust
kts
19/11:30pm 11.3 7.1 8.3 82 1.5 SSE 20 32 11 17 1026.8 1026.8 0.0
19/11:00pm 11.4 6.9 8.4 82 1.5 SSE 22 35 12 19 1026.9 1026.9 0.0
19/10:30pm 11.6 6.8 8.8 83 1.4 SSE 24 33 13 18 1026.9 1026.9 0.0
19/10:00pm 11.8 7.4 8.8 82 1.5 SSE 22 33 12 18 1026.5 1026.5 0.0
19/09:30pm 12.1 8.1 9.1 82 1.5 SSE 20 32 11 17 1026.5 1026.5 0.0
19/09:00pm 12.2 7.8 8.9 80 1.6 SSE 22 33 12 18 1026.4 1026.4 0.0
19/08:30pm 12.5 7.7 9.0 79 1.7 SSE 24 35 13 19 1026.1 1026.1 0.0
19/08:00pm 13.0 8.3 9.4 79 1.8 SSE 24 35 13 19 1025.8 1025.8 0.0
19/07:30pm 13.5 7.7 9.6 77 2.0 SSE 30 46 16 25 1025.2 1025.2 0.0
19/07:00pm 14.5 7.5 10.1 75 2.3 S 37 50 20 27 1024.6 1024.6 0.0
19/06:30pm 15.3 9.1 9.9 70 2.8 SSE 33 48 18 26 1023.9 1023.9 0.0
19/06:00pm 15.5 9.6 10.5 72 2.6 S 32 41 17 22 1023.9 1023.9 0.0
19/05:30pm 15.8 10.6 10.3 70 2.9 SSE 28 39 15 21 1023.3 1023.3 0.0
19/05:00pm 15.9 10.8 10.7 71 2.8 SSE 28 39 15 21 1023.1 1023.1 0.0
19/04:30pm 16.2 8.9 11.4 73 2.6 S 41 52 22 28 1023.1 1023.1 0.0
19/04:00pm 16.1 8.2 10.8 71 2.8 S 43 52 23 28 1023.3 1023.3 0.0
19/03:30pm 16.1 9.1 11.3 73 2.6 S 39 46 21 25 1022.8 1022.8 0.0
19/03:00pm 17.0 10.8 11.3 69 3.1 S 35 46 19 25 1022.0 1022.0 0.0
19/02:30pm 17.1 10.4 12.4 74 2.6 S 39 48 21 26 1022.3 1022.3 0.0
19/02:00pm 18.3 11.6 12.3 68 3.3 S 39 46 21 25 1021.7 1021.7 0.0
19/01:30pm 18.6 13.2 12.8 69 3.2 S 33 41 18 22 1021.3 1021.3 0.0
19/01:00pm 18.2 12.1 12.9 71 3.0 S 37 44 20 24 1021.4 1021.4 0.0
19/12:30pm 18.8 14.2 13.4 71 3.1 S 30 35 16 19 1021.1 1021.1 0.0
19/12:00pm 17.2 11.0 12.7 75 2.5 S 37 44 20 24 1021.6 1021.6 0.0
19/11:30am 17.6 12.4 13.3 76 2.4 S 33 41 18 22 1021.2 1021.2 0.0
19/11:00am 16.7 11.6 13.0 79 2.1 S 32 41 17 22 1021.3 1021.3 0.0
19/10:30am 17.6 14.0 14.1 80 2.0 SSW 26 33 14 18 1021.0 1021.0 0.0
19/10:00am 18.1 17.6 12.5 70 3.1 S 7 15 4 8 1020.5 1020.5 0.0
19/09:30am 16.6 16.0 11.7 73 2.7 SE 6 11 3 6 1019.8 1019.8 0.0
19/09:00am 15.2 14.0 12.7 85 1.4 SSE 11 17 6 9 1019.6 1019.6 0.0
19/08:30am 13.9 12.5 12.3 90 0.9 SSW 11 20 6 11 1019.9 1019.9 0.0
19/08:00am 12.8 12.0 11.2 90 0.8 SE 6 9 3 5 1019.1 1019.1 0.0

Other Formats:

Comma delimited format used in spreadsheet applications
http://www.bom.gov.au/fwo/IDS60801/IDS60801.94813.axf

JavaScript Object Notation format (JSON) in row-major order
http://www.bom.gov.au/fwo/IDS60801/IDS60801.94813.json